Time,TemperatureF,DewpointF,PressureIn,WindDirection,WindDirectionDegrees,WindSpeedMPH,WindSpeedGustMPH,Humidity,HourlyPrecipIn,Conditions,Clouds,dailyrainin,SoftwareType,DateUTC
2013-01-21 00:03:00,40.9,22.2,30.07,North,360,0.1,1.1,47,0.00,RA,,0.00,WeatherDisplay:10.37,2013-01-21 05:03:00,
2013-01-21 00:04:00,40.9,21.7,30.07,East,82,0.7,1.1,46,0.00,RA,,0.00,WeatherDisplay:10.37,2013-01-21 05:04:00,
2013-01-21 00:05:00,41.0,22.3,30.07,ENE,76,0.7,1.1,47,0.00,RA,,0.00,WeatherDisplay:10.37,2013-01-21 05:05:00,
2013-01-21 00:09:00,41.2,21.9,30.07,SSE,163,0.0,0.0,46,0.00,RA,,0.00,WeatherDisplay:10.37,2013-01-21 05:09:00,
2013-01-21 00:14:00,41.3,21.5,30.07,NE,38,2.4,4.0,45,0.00,RA,,0.00,WeatherDisplay:10.37,2013-01-21 05:14:00,
2013-01-21 00:19:00,41.5,21.2,30.07,WSW,242,1.1,4.6,44,0.00,RA,,0.00,WeatherDisplay:10.37,2013-01-21 05:19:00,
2013-01-21 00:24:00,41.6,21.3,30.07,NW,321,0.6,5.8,44,0.00,RA,,0.00,WeatherDisplay:10.37,2013-01-21 05:24:00,
2013-01-21 00:29:00,41.6,21.8,30.07,SW,219,1.8,4.6,45,0.00,RA,,0.00,WeatherDisplay:10.37,2013-01-21 05:29:00,
2013-01-21 00:34:00,41.6,21.3,30.07,NNW,327,1.4,3.5,44,0.00,CLR,,0.00,WeatherDisplay:10.37,2013-01-21 05:34:00,
2013-01-21 00:40:00,41.7,21.9,30.06,NW,321,1.8,3.5,45,0.00,CLR,,0.00,WeatherDisplay:10.37,2013-01-21 05:40:00,
2013-01-21 00:48:00,41.6,21.8,30.06,ESE,113,0.0,2.3,45,0.00,CLR,,0.00,WeatherDisplay:10.37,2013-01-21 05:48:00,
2013-01-21 00:53:00,41.6,21.8,30.06,NW,316,0.7,2.3,45,0.00,CLR,,0.00,WeatherDisplay:10.37,2013-01-21 05:53:00,
2013-01-21 00:58:00,41.4,21.6,30.06,NW,323,2.8,5.0,45,0.00,CLR,,0.00,WeatherDisplay:10.37,2013-01-21 05:58:00,
2013-01-21 01:03:00,41.4,22.1,30.06,NNW,338,1.8,4.6,46,0.00,CLR,,0.00,WeatherDisplay:10.37,2013-01-21 06:03:00,
2013-01-21 01:08:00,41.3,21.5,30.06,NW,315,0.9,3.5,45,0.00,CLR,,0.00,WeatherDisplay:10.37,2013-01-21 06:08:00,
2013-01-21 01:13:00,41.2,21.4,30.06,NW,304,1.6,2.3,45,0.00,CLR,,0.00,WeatherDisplay:10.37,2013-01-21 06:13:00,
2013-01-21 01:18:00,41.1,21.3,30.06,NW,317,0.3,2.3,45,0.00,CLR,,0.00,WeatherDisplay:10.37,2013-01-21 06:18:00,
2013-01-21 01:24:00,40.9,21.7,30.06,North,4,0.0,1.1,46,0.00,CLR,,0.00,WeatherDisplay:10.37,2013-01-21 06:24:00,
2013-01-21 01:29:00,40.6,21.4,30.06,NNW,347,1.0,0.0,46,0.00,CLR,,0.00,WeatherDisplay:10.37,2013-01-21 06:29:00,
2013-01-21 01:34:00,40.3,22.1,30.06,West,281,0.0,0.0,48,0.00,CLR,,0.00,WeatherDisplay:10.37,2013-01-21 06:34:00,
2013-01-21 01:39:00,39.7,21.6,30.07,NW,308,0.0,0.0,48,0.00,CLR,,0.00,WeatherDisplay:10.37,2013-01-21 06:39:00,
2013-01-21 01:44:00,39.4,21.8,30.07,SW,233,0.0,0.0,49,0.00,CLR,,0.00,WeatherDisplay:10.37,2013-01-21 06:44:00,
2013-01-21 01:49:00,39.1,21.0,30.07,SW,219,0.6,2.0,48,0.00,CLR,,0.00,WeatherDisplay:10.37,2013-01-21 06:49:00,
2013-01-21 01:54:00,39.2,21.1,30.07,East,87,0.2,1.1,48,0.00,CLR,,0.00,WeatherDisplay:10.37,2013-01-21 06:54:00,
2013-01-21 01:59:00,39.1,21.5,30.07,West,280,0.1,1.0,49,0.00,CLR,,0.00,WeatherDisplay:10.37,2013-01-21 06:59:00,
2013-01-21 02:04:00,39.1,22.9,30.08,WSW,250,0.0,0.0,52,0.00,CLR,,0.00,WeatherDisplay:10.37,2013-01-21 07:04:00,
2013-01-21 02:09:00,38.7,21.6,30.08,ESE,118,0.0,1.1,50,0.00,CLR,,0.00,WeatherDisplay:10.37,2013-01-21 07:09:00,
2013-01-21 02:14:00,38.3,21.7,30.08,ESE,118,0.0,1.1,51,0.00,CLR,,0.00,WeatherDisplay:10.37,2013-01-21 07:14:00,
2013-01-21 02:19:00,37.8,24.3,30.08,SSW,197,0.0,0.0,58,0.00,CLR,,0.00,WeatherDisplay:10.37,2013-01-21 07:19:00,
2013-01-21 02:24:00,37.5,21.5,30.08,SSW,197,0.0,0.0,52,0.00,CLR,,0.00,WeatherDisplay:10.37,2013-01-21 07:24:00,
2013-01-21 02:30:00,37.8,21.7,30.07,ENE,75,0.6,1.1,52,0.00,CLR,,0.00,WeatherDisplay:10.37,2013-01-21 07:30:00,
2013-01-21 02:35:00,37.6,24.6,30.08,SSW,207,0.2,2.3,59,0.00,CLR,,0.00,WeatherDisplay:10.37,2013-01-21 07:35:00,
2013-01-21 02:40:00,36.4,25.4,30.08,East,79,0.3,1.0,64,0.00,CLR,,0.00,WeatherDisplay:10.37,2013-01-21 07:40:00,
2013-01-21 02:45:00,36.1,25.5,30.08,SW,236,1.0,3.5,65,0.00,CLR,,0.00,WeatherDisplay:10.37,2013-01-21 07:45:00,
2013-01-21 02:50:00,35.5,23.0,30.08,SW,236,0.1,2.3,60,0.00,CLR,,0.00,WeatherDisplay:10.37,2013-01-21 07:50:00,
2013-01-21 02:55:00,35.1,23.8,30.08,North,1,1.2,2.3,63,0.00,CLR,,0.00,WeatherDisplay:10.37,2013-01-21 07:55:00,
2013-01-21 03:00:00,35.3,24.7,30.08,SE,142,0.0,1.1,65,0.00,CLR,,0.00,WeatherDisplay:10.37,2013-01-21 08:00:00,
2013-01-21 03:05:00,35.1,23.0,30.08,SE,143,0.0,0.0,61,0.00,CLR,,0.00,WeatherDisplay:10.37,2013-01-21 08:05:00,
2013-01-21 03:11:00,34.8,23.9,30.08,NE,43,0.4,1.1,64,0.00,CLR,,0.00,WeatherDisplay:10.37,2013-01-21 08:11:00,
2013-01-21 03:16:00,35.1,23.4,30.08,NE,41,1.0,2.3,62,0.00,CLR,,0.00,WeatherDisplay:10.37,2013-01-21 08:16:00,
2013-01-21 03:21:00,34.4,24.6,30.08,ESE,116,0.0,1.1,67,0.00,CLR,,0.00,WeatherDisplay:10.37,2013-01-21 08:21:00,
2013-01-21 03:26:00,33.6,25.2,30.08,SSW,203,0.0,0.0,71,0.00,CLR,,0.00,WeatherDisplay:10.37,2013-01-21 08:26:00,
2013-01-21 03:31:00,33.4,22.9,30.07,SE,141,0.0,0.0,65,0.00,CLR,,0.00,WeatherDisplay:10.37,2013-01-21 08:31:00,
2013-01-21 03:37:00,33.7,24.3,30.07,SE,141,0.1,1.0,68,0.00,CLR,,0.00,WeatherDisplay:10.37,2013-01-21 08:37:00,
2013-01-21 03:42:00,33.1,25.1,30.07,SE,141,0.0,0.0,72,0.00,CLR,,0.00,WeatherDisplay:10.37,2013-01-21 08:42:00,
2013-01-21 03:47:00,32.5,24.1,30.06,SSE,150,0.0,0.0,71,0.00,CLR,,0.00,WeatherDisplay:10.37,2013-01-21 08:47:00,
2013-01-21 03:53:00,32.4,24.4,30.06,SW,226,0.0,0.0,72,0.00,CLR,,0.00,WeatherDisplay:10.37,2013-01-21 08:53:00,
2013-01-21 03:57:00,32.0,24.3,30.06,SSE,152,0.0,1.1,73,0.00,CLR,,0.00,WeatherDisplay:10.37,2013-01-21 08:57:00,
2013-01-21 04:02:00,31.6,24.3,30.06,ESE,120,0.2,1.0,74,0.00,CLR,,0.00,WeatherDisplay:10.37,2013-01-21 09:02:00,
2013-01-21 04:07:00,31.4,24.4,30.06,SW,225,0.0,1.1,75,0.00,CLR,,0.00,WeatherDisplay:10.37,2013-01-21 09:07:00,
2013-01-21 04:12:00,31.1,24.4,30.06,SSW,200,0.0,0.0,76,0.00,CLR,,0.00,WeatherDisplay:10.37,2013-01-21 09:12:00,
2013-01-21 04:17:00,31.4,23.4,30.06,SSE,162,0.0,0.0,72,0.00,CLR,,0.00,WeatherDisplay:10.37,2013-01-21 09:17:00,
2013-01-21 04:22:00,31.6,23.6,30.06,SSE,158,0.0,0.0,72,0.00,CLR,,0.00,WeatherDisplay:10.37,2013-01-21 09:22:00,
2013-01-21 04:27:00,31.9,22.2,30.05,East,82,1.4,2.3,67,0.00,CLR,,0.00,WeatherDisplay:10.37,2013-01-21 09:27:00,
2013-01-21 04:32:00,33.2,24.1,30.05,SW,224,0.1,1.1,69,0.00,CLR,,0.00,WeatherDisplay:10.37,2013-01-21 09:32:00,
2013-01-21 04:37:00,32.8,23.4,30.05,SW,229,0.3,1.1,68,0.00,CLR,,0.00,WeatherDisplay:10.37,2013-01-21 09:37:00,
2013-01-21 04:42:00,32.4,23.7,30.05,SW,228,0.0,0.0,70,0.00,CLR,,0.00,WeatherDisplay:10.37,2013-01-21 09:42:00,
2013-01-21 04:47:00,32.0,24.0,30.05,SW,224,0.1,1.1,72,0.00,CLR,,0.00,WeatherDisplay:10.37,2013-01-21 09:47:00,
2013-01-21 04:52:00,31.2,24.5,30.05,SW,225,0.0,0.0,76,0.00,CLR,,0.00,WeatherDisplay:10.37,2013-01-21 09:52:00,
2013-01-21 04:58:00,30.5,24.8,30.05,SW,225,0.0,0.0,79,0.00,CLR,,0.00,WeatherDisplay:10.37,2013-01-21 09:58:00,
2013-01-21 05:03:00,30.2,23.5,30.05,SW,225,0.0,0.0,76,0.00,CLR,,0.00,WeatherDisplay:10.37,2013-01-21 10:03:00,
2013-01-21 05:08:00,31.2,22.5,30.04,SE,130,0.0,0.0,70,0.00,CLR,,0.00,WeatherDisplay:10.37,2013-01-21 10:08:00,
2013-01-21 05:13:00,31.9,23.6,30.04,SSE,150,0.0,0.0,71,0.00,CLR,,0.00,WeatherDisplay:10.37,2013-01-21 10:13:00,
2013-01-21 05:18:00,31.9,22.5,30.04,SSE,150,0.0,0.0,68,0.00,CLR,,0.00,WeatherDisplay:10.37,2013-01-21 10:18:00,
2013-01-21 05:23:00,31.6,23.3,30.04,East,97,0.4,1.0,71,0.00,CLR,,0.00,WeatherDisplay:10.37,2013-01-21 10:23:00,
2013-01-21 05:28:00,31.6,23.9,30.04,WNW,295,0.4,2.3,73,0.00,CLR,,0.00,WeatherDisplay:10.37,2013-01-21 10:28:00,
2013-01-21 05:33:00,31.2,23.9,30.04,WSW,238,0.0,1.1,74,0.00,CLR,,0.00,WeatherDisplay:10.37,2013-01-21 10:33:00,
2013-01-21 05:38:00,30.6,23.6,30.04,WSW,238,0.0,0.0,75,0.00,CLR,,0.00,WeatherDisplay:10.37,2013-01-21 10:38:00,
2013-01-21 05:43:00,30.2,23.9,30.04,WSW,238,0.0,1.1,77,0.00,CLR,,0.00,WeatherDisplay:10.37,2013-01-21 10:43:00,
2013-01-21 05:48:00,29.8,22.5,30.04,WSW,238,0.0,0.0,74,0.00,CLR,,0.00,WeatherDisplay:10.37,2013-01-21 10:48:00,
2013-01-21 05:54:00,29.8,23.2,30.04,SSW,194,0.0,0.0,76,0.00,CLR,,0.00,WeatherDisplay:10.37,2013-01-21 10:54:00,
2013-01-21 05:59:00,29.6,23.0,30.04,WSW,255,0.0,1.0,76,0.00,CLR,,0.00,WeatherDisplay:10.37,2013-01-21 10:59:00,
2013-01-21 06:04:00,29.7,22.1,30.04,WSW,239,0.0,0.0,73,0.00,CLR,,0.00,WeatherDisplay:10.37,2013-01-21 11:04:00,
2013-01-21 06:10:00,29.5,22.6,30.04,ESE,110,0.0,1.1,75,0.00,CLR,,0.00,WeatherDisplay:10.37,2013-01-21 11:10:00,
2013-01-21 06:15:00,29.7,22.7,30.04,East,99,0.4,1.1,75,0.00,CLR,,0.00,WeatherDisplay:10.37,2013-01-21 11:15:00,
2013-01-21 06:20:00,29.8,23.2,30.04,WSW,242,0.2,1.1,76,0.00,CLR,,0.00,WeatherDisplay:10.37,2013-01-21 11:20:00,
2013-01-21 06:25:00,29.2,22.9,30.03,WSW,243,0.0,1.1,77,0.00,CLR,,0.00,WeatherDisplay:10.37,2013-01-21 11:25:00,
2013-01-21 06:30:00,28.8,22.5,30.03,West,273,0.4,1.1,77,0.00,CLR,,0.00,WeatherDisplay:10.37,2013-01-21 11:30:00,
2013-01-21 06:35:00,28.7,23.3,30.03,West,270,0.0,0.0,80,0.00,CLR,,0.00,WeatherDisplay:10.37,2013-01-21 11:35:00,
2013-01-21 06:40:00,28.4,23.3,30.03,West,270,0.0,0.0,81,0.00,CLR,,0.00,WeatherDisplay:10.37,2013-01-21 11:40:00,
2013-01-21 06:45:00,28.1,23.0,30.04,West,270,0.0,1.1,81,0.00,CLR,,0.00,WeatherDisplay:10.37,2013-01-21 11:45:00,
2013-01-21 06:50:00,28.4,22.7,30.03,West,270,0.0,1.1,79,0.00,CLR,,0.00,WeatherDisplay:10.37,2013-01-21 11:50:00,
2013-01-21 06:55:00,28.6,23.5,30.04,West,270,0.0,0.0,81,0.00,CLR,,0.00,WeatherDisplay:10.37,2013-01-21 11:55:00,
2013-01-21 07:00:00,28.4,23.6,30.04,West,270,0.1,1.0,82,0.00,CLR,,0.00,WeatherDisplay:10.37,2013-01-21 12:00:00,
2013-01-21 07:05:00,28.1,23.3,30.04,West,259,0.0,0.0,82,0.00,CLR,,0.00,WeatherDisplay:10.37,2013-01-21 12:05:00,
2013-01-21 07:10:00,27.9,22.8,30.04,West,259,0.0,1.1,81,0.00,CLR,,0.00,WeatherDisplay:10.37,2013-01-21 12:10:00,
2013-01-21 07:15:00,27.9,23.1,30.04,West,259,0.0,0.0,82,0.00,CLR,,0.00,WeatherDisplay:10.37,2013-01-21 12:15:00,
2013-01-21 07:20:00,27.7,22.9,30.03,WSW,247,0.5,1.1,82,0.00,CLR,,0.00,WeatherDisplay:10.37,2013-01-21 12:20:00,
2013-01-21 07:26:00,27.8,23.0,30.04,WSW,238,0.0,0.0,82,0.00,CLR,,0.00,WeatherDisplay:10.37,2013-01-21 12:26:00,
2013-01-21 07:32:00,27.7,22.9,30.03,East,87,0.2,1.1,82,0.00,CLR,,0.00,WeatherDisplay:10.37,2013-01-21 12:32:00,
2013-01-21 07:38:00,28.0,23.2,30.04,WSW,238,0.1,1.1,82,0.00,CLR,,0.00,WeatherDisplay:10.37,2013-01-21 12:38:00,
2013-01-21 07:43:00,27.9,23.1,30.03,SE,140,0.0,0.0,82,0.00,CLR,,0.00,WeatherDisplay:10.37,2013-01-21 12:43:00,
2013-01-21 07:48:00,28.1,23.3,30.04,West,265,2.5,3.5,82,0.00,CLR,,0.00,WeatherDisplay:10.37,2013-01-21 12:48:00,
2013-01-21 07:53:00,27.8,23.3,30.03,East,100,0.3,2.3,83,0.00,CLR,,0.00,WeatherDisplay:10.37,2013-01-21 12:53:00,
2013-01-21 07:59:00,27.7,23.5,30.04,North,349,0.3,2.0,84,0.00,CLR,,0.00,WeatherDisplay:10.37,2013-01-21 12:59:00,
2013-01-21 08:04:00,27.8,23.3,30.04,East,94,0.3,1.1,83,0.00,CLR,,0.00,WeatherDisplay:10.37,2013-01-21 13:04:00,
2013-01-21 08:09:00,28.0,23.8,30.04,East,93,0.0,0.0,84,0.00,CLR,,0.00,WeatherDisplay:10.37,2013-01-21 13:09:00,
2013-01-21 08:14:00,28.0,23.8,30.03,East,101,0.6,1.1,84,0.00,CLR,,0.00,WeatherDisplay:10.37,2013-01-21 13:14:00,
2013-01-21 08:19:00,28.1,23.6,30.04,WSW,246,0.0,0.0,83,0.00,CLR,,0.00,WeatherDisplay:10.37,2013-01-21 13:19:00,
2013-01-21 08:24:00,28.4,23.9,30.04,SSW,201,0.0,1.1,83,0.00,CLR,,0.00,WeatherDisplay:10.37,2013-01-21 13:24:00,
2013-01-21 08:29:00,28.6,24.1,30.04,SSW,202,0.0,0.0,83,0.00,CLR,,0.00,WeatherDisplay:10.37,2013-01-21 13:29:00,
2013-01-21 08:34:00,28.7,24.2,30.04,WSW,238,0.0,0.0,83,0.00,CLR,,0.00,WeatherDisplay:10.37,2013-01-21 13:34:00,
2013-01-21 08:39:00,29.2,24.4,30.04,WSW,238,0.0,0.0,82,0.00,CLR,,0.00,WeatherDisplay:10.37,2013-01-21 13:39:00,
2013-01-21 08:44:00,29.3,24.2,30.04,WSW,238,0.0,0.0,81,0.00,CLR,,0.00,WeatherDisplay:10.37,2013-01-21 13:44:00,
2013-01-21 08:49:00,29.6,24.2,30.04,WSW,238,0.0,0.0,80,0.00,CLR,,0.00,WeatherDisplay:10.37,2013-01-21 13:49:00,
2013-01-21 08:55:00,29.9,24.5,30.04,WSW,238,0.0,0.0,80,0.00,CLR,,0.00,WeatherDisplay:10.37,2013-01-21 13:55:00,
2013-01-21 09:00:00,30.4,25.0,30.05,WSW,238,0.3,1.1,80,0.00,CLR,,0.00,WeatherDisplay:10.37,2013-01-21 14:00:00,
2013-01-21 09:05:00,30.9,25.5,30.04,WSW,238,0.0,0.0,80,0.00,CLR,,0.00,WeatherDisplay:10.37,2013-01-21 14:05:00,
2013-01-21 09:10:00,31.3,25.5,30.04,WSW,238,0.0,0.0,79,0.00,CLR,,0.00,WeatherDisplay:10.37,2013-01-21 14:10:00,
2013-01-21 09:15:00,31.9,25.5,30.04,WSW,238,0.0,0.0,77,0.00,CLR,,0.00,WeatherDisplay:10.37,2013-01-21 14:15:00,
2013-01-21 09:21:00,32.8,25.1,30.04,WSW,238,0.0,0.0,73,0.00,CLR,,0.00,WeatherDisplay:10.37,2013-01-21 14:21:00,
2013-01-21 09:26:00,33.7,26.0,30.04,SW,232,0.4,1.1,73,0.00,CLR,,0.00,WeatherDisplay:10.37,2013-01-21 14:26:00,
2013-01-21 09:31:00,34.4,25.3,30.04,SW,232,0.0,0.0,69,0.00,CLR,,0.00,WeatherDisplay:10.37,2013-01-21 14:31:00,
2013-01-21 09:36:00,35.0,25.5,30.04,SW,232,0.0,0.0,68,0.00,CLR,,0.00,WeatherDisplay:10.37,2013-01-21 14:36:00,
2013-01-21 09:41:00,35.6,25.7,30.04,SW,232,0.1,1.1,67,0.00,CLR,,0.00,WeatherDisplay:10.37,2013-01-21 14:41:00,
2013-01-21 09:46:00,36.0,25.7,30.04,SW,232,0.0,0.0,66,0.00,CLR,,0.00,WeatherDisplay:10.37,2013-01-21 14:46:00,
2013-01-21 09:51:00,36.3,25.3,30.05,SW,231,0.0,0.0,64,0.00,CLR,,0.00,WeatherDisplay:10.37,2013-01-21 14:51:00,
2013-01-21 09:56:00,36.9,25.1,30.04,ESE,103,0.0,1.1,62,0.00,CLR,,0.00,WeatherDisplay:10.37,2013-01-21 14:56:00,
2013-01-21 10:02:00,38.1,24.6,30.05,NNE,16,0.2,1.0,58,0.00,CLR,,0.00,WeatherDisplay:10.37,2013-01-21 15:02:00,
2013-01-21 10:07:00,39.1,25.1,30.05,East,83,0.3,1.1,57,0.00,CLR,,0.00,WeatherDisplay:10.37,2013-01-21 15:07:00,
2013-01-21 10:12:00,40.0,25.1,30.04,East,80,0.2,1.1,55,0.00,CLR,,0.00,WeatherDisplay:10.37,2013-01-21 15:12:00,
2013-01-21 10:17:00,40.8,25.9,30.04,NE,46,0.0,0.0,55,0.00,CLR,,0.00,WeatherDisplay:10.37,2013-01-21 15:17:00,
2013-01-21 10:23:00,41.4,26.4,30.04,North,359,0.0,0.0,55,0.00,CLR,,0.00,WeatherDisplay:10.37,2013-01-21 15:23:00,
2013-01-21 10:28:00,42.0,26.1,30.04,NE,39,0.0,2.3,53,0.00,CLR,,0.00,WeatherDisplay:10.37,2013-01-21 15:28:00,
2013-01-21 10:33:00,42.6,26.2,30.04,NE,48,0.0,2.3,52,0.00,CLR,,0.00,WeatherDisplay:10.37,2013-01-21 15:33:00,
2013-01-21 10:38:00,43.3,25.4,30.04,East,83,1.2,2.3,49,0.00,CLR,,0.00,WeatherDisplay:10.37,2013-01-21 15:38:00,
2013-01-21 10:43:00,43.9,25.5,30.04,East,82,0.9,3.5,48,0.00,CLR,,0.00,WeatherDisplay:10.37,2013-01-21 15:43:00,
2013-01-21 10:48:00,44.5,25.5,30.04,ENE,75,1.7,3.0,47,0.00,CLR,,0.00,WeatherDisplay:10.37,2013-01-21 15:48:00,
2013-01-21 10:53:00,44.8,25.3,30.03,North,352,0.8,3.5,46,0.00,CLR,,0.00,WeatherDisplay:10.37,2013-01-21 15:53:00,
2013-01-21 10:58:00,45.3,25.7,30.03,SW,224,3.5,6.9,46,0.00,CLR,,0.00,WeatherDisplay:10.37,2013-01-21 15:58:00,
2013-01-21 11:03:00,45.6,25.5,30.03,West,273,1.0,5.8,45,0.00,CLR,,0.00,WeatherDisplay:10.37,2013-01-21 16:03:00,
2013-01-21 11:08:00,45.7,24.5,30.02,SW,219,1.9,6.9,43,0.00,CLR,,0.00,WeatherDisplay:10.37,2013-01-21 16:08:00,
2013-01-21 11:13:00,45.9,25.2,30.02,West,262,3.2,16.1,44,0.00,CLR,,0.00,WeatherDisplay:10.37,2013-01-21 16:13:00,
2013-01-21 11:18:00,46.0,24.7,30.01,SW,229,3.8,9.2,43,0.00,CLR,,0.00,WeatherDisplay:10.37,2013-01-21 16:18:00,
2013-01-21 11:23:00,46.0,24.7,30.01,SW,215,2.6,8.1,43,0.00,CLR,,0.00,WeatherDisplay:10.37,2013-01-21 16:23:00,
2013-01-21 11:28:00,46.1,25.4,30.00,SSW,207,2.7,5.8,44,0.00,CLR,,0.00,WeatherDisplay:10.37,2013-01-21 16:28:00,
2013-01-21 11:33:00,46.2,25.5,30.00,West,271,1.7,5.8,44,0.00,CLR,,0.00,WeatherDisplay:10.37,2013-01-21 16:33:00,
2013-01-21 11:38:00,46.4,25.6,30.00,SE,145,3.2,11.5,44,0.00,CLR,,0.00,WeatherDisplay:10.37,2013-01-21 16:38:00,
2013-01-21 11:43:00,46.6,24.7,29.99,SSW,211,2.2,9.2,42,0.00,CLR,,0.00,WeatherDisplay:10.37,2013-01-21 16:43:00,
2013-01-21 11:48:00,46.7,24.8,29.98,SW,214,5.1,10.0,42,0.00,CLR,,0.00,WeatherDisplay:10.37,2013-01-21 16:48:00,
2013-01-21 11:53:00,47.0,25.1,29.97,WNW,295,4.7,9.0,42,0.00,CLR,,0.00,WeatherDisplay:10.37,2013-01-21 16:53:00,
2013-01-21 11:58:00,47.3,23.6,29.98,SW,225,6.3,11.0,39,0.00,CLR,,0.00,WeatherDisplay:10.37,2013-01-21 16:58:00,
2013-01-21 12:03:00,47.5,23.7,29.97,WSW,253,4.1,13.8,39,0.00,CLR,,0.00,WeatherDisplay:10.37,2013-01-21 17:03:00,
2013-01-21 12:08:00,47.6,21.9,29.97,SW,229,5.8,16.1,36,0.00,CLR,,0.00,WeatherDisplay:10.37,2013-01-21 17:08:00,
2013-01-21 12:13:00,47.6,22.6,29.97,SE,129,5.6,15.0,37,0.00,CLR,,0.00,WeatherDisplay:10.37,2013-01-21 17:13:00,
2013-01-21 12:18:00,47.9,24.1,29.96,WSW,240,6.0,15.0,39,0.00,CLR,,0.00,WeatherDisplay:10.37,2013-01-21 17:18:00,
2013-01-21 12:23:00,48.1,24.3,29.96,SSW,193,1.8,5.0,39,0.00,CLR,,0.00,WeatherDisplay:10.37,2013-01-21 17:23:00,
2013-01-21 12:28:00,48.5,23.4,29.96,WSW,240,7.3,12.0,37,0.00,CLR,,0.00,WeatherDisplay:10.37,2013-01-21 17:28:00,
2013-01-21 12:33:00,49.0,25.1,29.95,West,274,4.0,7.0,39,0.00,CLR,,0.00,WeatherDisplay:10.37,2013-01-21 17:33:00,
2013-01-21 12:38:00,49.0,25.1,29.94,NNW,347,2.0,9.2,39,0.00,CLR,,0.00,WeatherDisplay:10.37,2013-01-21 17:38:00,
2013-01-21 12:43:00,49.1,24.6,29.94,SSW,205,4.7,10.4,38,0.00,CLR,,0.00,WeatherDisplay:10.37,2013-01-21 17:43:00,
2013-01-21 12:48:00,49.4,24.8,29.93,West,274,5.6,12.0,38,0.00,CLR,,0.00,WeatherDisplay:10.37,2013-01-21 17:48:00,
2013-01-21 12:53:00,49.8,24.5,29.93,West,269,7.0,14.0,37,0.00,CLR,,0.00,WeatherDisplay:10.37,2013-01-21 17:53:00,
2013-01-21 12:58:00,49.7,25.1,29.93,WNW,300,4.2,11.5,38,0.00,CLR,,0.00,WeatherDisplay:10.37,2013-01-21 17:58:00,
2013-01-21 13:04:00,49.9,24.0,29.92,SW,226,4.8,13.0,36,0.00,CLR,,0.00,WeatherDisplay:10.37,2013-01-21 18:04:00,
2013-01-21 13:09:00,50.1,24.2,29.91,SW,217,4.0,9.0,36,0.00,CLR,,0.00,WeatherDisplay:10.37,2013-01-21 18:09:00,
2013-01-21 13:14:00,50.1,23.5,29.91,SSW,205,7.6,12.0,35,0.00,CLR,,0.00,WeatherDisplay:10.37,2013-01-21 18:14:00,
2013-01-21 13:19:00,50.1,23.5,29.90,WNW,293,1.2,11.5,35,0.00,CLR,,0.00,WeatherDisplay:10.37,2013-01-21 18:19:00,
2013-01-21 13:24:00,50.4,22.3,29.90,West,270,7.9,15.0,33,0.00,CLR,,0.00,WeatherDisplay:10.37,2013-01-21 18:24:00,
2013-01-21 13:29:00,50.5,22.4,29.89,WSW,249,4.1,9.0,33,0.00,CLR,,0.00,WeatherDisplay:10.37,2013-01-21 18:29:00,
2013-01-21 13:34:00,50.7,22.6,29.89,WSW,256,5.0,0.0,33,0.00,CLR,,0.00,WeatherDisplay:10.37,2013-01-21 18:34:00,
2013-01-21 13:39:00,50.6,21.8,29.89,SW,234,8.0,0.0,32,0.00,CLR,,0.00,WeatherDisplay:10.37,2013-01-21 18:39:00,
2013-01-21 13:44:00,50.5,21.7,29.89,SW,224,8.0,0.0,32,0.00,CLR,,0.00,WeatherDisplay:10.37,2013-01-21 18:44:00,
2013-01-21 13:50:00,50.6,21.0,29.89,SW,224,7.3,13.0,31,0.00,CLR,,0.00,WeatherDisplay:10.37,2013-01-21 18:50:00,
2013-01-21 13:55:00,50.3,21.5,29.88,West,259,3.8,11.5,32,0.00,CLR,,0.00,WeatherDisplay:10.37,2013-01-21 18:55:00,
2013-01-21 14:00:00,50.4,21.6,29.88,SW,235,7.4,12.0,32,0.00,CLR,,0.00,WeatherDisplay:10.37,2013-01-21 19:00:00,
2013-01-21 14:05:00,50.1,21.3,29.88,SW,228,11.7,20.7,32,0.00,CLR,,0.00,WeatherDisplay:10.37,2013-01-21 19:05:00,
2013-01-21 14:10:00,50.2,22.2,29.88,SW,225,8.2,14.0,33,0.00,CLR,,0.00,WeatherDisplay:10.37,2013-01-21 19:10:00,
2013-01-21 14:15:00,50.3,22.3,29.89,WSW,248,6.6,11.5,33,0.00,CLR,,0.00,WeatherDisplay:10.37,2013-01-21 19:15:00,
2013-01-21 14:20:00,50.1,22.1,29.89,WSW,253,12.7,20.0,33,0.00,CLR,,0.00,WeatherDisplay:10.37,2013-01-21 19:20:00,
2013-01-21 14:25:00,49.6,23.0,29.88,SW,214,8.7,27.6,35,0.00,CLR,,0.00,WeatherDisplay:10.37,2013-01-21 19:25:00,
2013-01-21 14:30:00,49.3,22.8,29.88,SSW,203,8.0,19.6,35,0.00,CLR,,0.00,WeatherDisplay:10.37,2013-01-21 19:30:00,
2013-01-21 14:35:00,49.3,24.1,29.87,SW,214,4.8,17.3,37,0.00,CLR,,0.00,WeatherDisplay:10.37,2013-01-21 19:35:00,
2013-01-21 14:40:00,49.5,23.6,29.87,SW,225,5.0,13.8,36,0.00,CLR,,0.00,WeatherDisplay:10.37,2013-01-21 19:40:00,
2013-01-21 14:45:00,49.2,24.0,29.87,South,170,8.3,19.6,37,0.00,CLR,,0.00,WeatherDisplay:10.37,2013-01-21 19:45:00,
2013-01-21 14:51:00,49.1,23.9,29.87,SW,235,6.4,13.8,37,0.00,CLR,,0.00,WeatherDisplay:10.37,2013-01-21 19:51:00,
2013-01-21 14:56:00,49.4,24.2,29.87,SW,224,2.2,10.4,37,0.00,CLR,,0.00,WeatherDisplay:10.37,2013-01-21 19:56:00,
2013-01-21 15:01:00,49.4,23.5,29.86,WNW,298,4.6,15.0,36,0.00,CLR,,0.00,WeatherDisplay:10.37,2013-01-21 20:01:00,
2013-01-21 15:06:00,49.5,23.6,29.86,NNE,32,5.4,15.0,36,0.00,CLR,,0.00,WeatherDisplay:10.37,2013-01-21 20:06:00,
2013-01-21 15:11:00,49.8,25.2,29.86,WSW,249,4.9,12.0,38,0.00,CLR,,0.00,WeatherDisplay:10.37,2013-01-21 20:11:00,
2013-01-21 15:16:00,49.5,24.3,29.86,SW,222,5.0,11.5,37,0.00,CLR,,0.00,WeatherDisplay:10.37,2013-01-21 20:16:00,
2013-01-21 15:21:00,49.2,24.0,29.86,West,260,9.4,20.7,37,0.00,CLR,,0.00,WeatherDisplay:10.37,2013-01-21 20:21:00,
2013-01-21 15:27:00,49.2,24.0,29.85,WNW,282,4.0,12.7,37,0.00,CLR,,0.00,WeatherDisplay:10.37,2013-01-21 20:27:00,
2013-01-21 15:32:00,49.6,24.4,29.85,SW,215,6.3,11.5,37,0.00,CLR,,0.00,WeatherDisplay:10.37,2013-01-21 20:32:00,
2013-01-21 15:37:00,49.0,23.2,29.86,North,9,11.8,19.0,36,0.00,CLR,,0.00,WeatherDisplay:10.37,2013-01-21 20:37:00,
2013-01-21 15:42:00,48.6,23.5,29.86,WSW,253,8.2,16.1,37,0.00,CLR,,0.00,WeatherDisplay:10.37,2013-01-21 20:42:00,
2013-01-21 15:47:00,48.5,23.4,29.86,SW,228,10.9,17.0,37,0.00,CLR,,0.00,WeatherDisplay:10.37,2013-01-21 20:47:00,
2013-01-21 15:52:00,48.4,23.9,29.86,SSW,212,3.7,11.5,38,0.00,CLR,,0.00,WeatherDisplay:10.37,2013-01-21 20:52:00,
2013-01-21 15:57:00,48.5,24.0,29.87,SW,223,9.6,19.0,38,0.00,CLR,,0.00,WeatherDisplay:10.37,2013-01-21 20:57:00,
2013-01-21 16:02:00,48.2,24.4,29.86,SW,225,7.3,12.7,39,0.00,CLR,,0.00,WeatherDisplay:10.37,2013-01-21 21:02:00,
2013-01-21 16:08:00,47.8,24.0,29.87,WNW,285,5.1,11.5,39,0.00,CLR,,0.00,WeatherDisplay:10.37,2013-01-21 21:08:00,
2013-01-21 16:13:00,47.6,24.4,29.87,WSW,242,4.4,12.7,40,0.00,CLR,,0.00,WeatherDisplay:10.37,2013-01-21 21:13:00,
2013-01-21 16:18:00,47.5,23.7,29.86,NW,325,8.0,15.0,39,0.00,FEW,,0.00,WeatherDisplay:10.37,2013-01-21 21:18:00,
2013-01-21 16:23:00,47.2,23.5,29.87,SW,233,6.3,16.1,39,0.00,FEW,,0.00,WeatherDisplay:10.37,2013-01-21 21:23:00,
2013-01-21 16:28:00,47.1,23.4,29.87,WSW,256,2.4,13.8,39,0.00,FEW,,0.00,WeatherDisplay:10.37,2013-01-21 21:28:00,
2013-01-21 16:33:00,47.1,23.4,29.87,WNW,294,8.6,13.0,39,0.00,FEW,,0.00,WeatherDisplay:10.37,2013-01-21 21:33:00,
2013-01-21 16:39:00,46.9,23.2,29.87,SW,230,4.8,12.7,39,0.00,FEW,,0.00,WeatherDisplay:10.37,2013-01-21 21:39:00,
2013-01-21 16:44:00,46.8,23.2,29.87,WSW,239,7.0,0.0,39,0.00,FEW,,0.00,WeatherDisplay:10.37,2013-01-21 21:44:00,
2013-01-21 16:49:00,46.7,23.6,29.87,SW,222,3.0,0.0,40,0.00,FEW,,0.00,WeatherDisplay:10.37,2013-01-21 21:49:00,
2013-01-21 16:55:00,46.4,23.4,29.87,ESE,115,5.2,12.7,40,0.00,FEW,,0.00,WeatherDisplay:10.37,2013-01-21 21:55:00,
2013-01-21 17:00:00,46.4,23.9,29.87,WNW,295,0.2,4.6,41,0.00,FEW,,0.00,WeatherDisplay:10.37,2013-01-21 22:00:00,
2013-01-21 17:06:00,46.0,23.6,29.87,SW,214,4.6,9.2,41,0.00,FEW,,0.00,WeatherDisplay:10.37,2013-01-21 22:06:00,
2013-01-21 17:11:00,45.6,23.2,29.87,South,170,2.3,9.2,41,0.00,FEW,,0.00,WeatherDisplay:10.37,2013-01-21 22:11:00,
2013-01-21 17:17:00,45.1,22.8,29.87,WSW,242,2.4,8.0,41,0.00,FEW,,0.00,WeatherDisplay:10.37,2013-01-21 22:17:00,
2013-01-21 17:22:00,44.8,22.5,29.87,SSW,207,6.4,11.5,41,0.00,FEW,,0.00,WeatherDisplay:10.37,2013-01-21 22:22:00,
2013-01-21 17:27:00,44.5,22.8,29.87,WSW,248,4.2,6.0,42,0.00,FEW,,0.00,WeatherDisplay:10.37,2013-01-21 22:27:00,
2013-01-21 17:32:00,44.3,22.6,29.88,SE,136,0.8,9.2,42,0.00,FEW,,0.00,WeatherDisplay:10.37,2013-01-21 22:32:00,
2013-01-21 17:37:00,44.0,22.4,29.88,ESE,110,0.7,2.3,42,0.00,FEW,,0.00,WeatherDisplay:10.37,2013-01-21 22:37:00,
2013-01-21 17:42:00,43.9,21.7,29.88,SW,220,5.1,9.2,41,0.00,FEW,,0.00,WeatherDisplay:10.37,2013-01-21 22:42:00,
2013-01-21 17:48:00,43.9,20.5,29.88,SW,221,2.7,11.5,39,0.00,FEW,,0.00,WeatherDisplay:10.37,2013-01-21 22:48:00,
2013-01-21 17:53:00,43.9,20.5,29.88,SW,217,2.8,8.1,39,0.00,FEW,,0.00,WeatherDisplay:10.37,2013-01-21 22:53:00,
2013-01-21 17:58:00,43.9,19.9,29.88,West,280,2.9,11.5,38,0.00,FEW,,0.00,WeatherDisplay:10.37,2013-01-21 22:58:00,
2013-01-21 18:03:00,43.8,19.2,29.89,SSW,207,5.3,13.0,37,0.00,FEW,,0.00,WeatherDisplay:10.37,2013-01-21 23:03:00,
2013-01-21 18:09:00,43.5,18.9,29.89,SW,229,5.8,10.0,37,0.00,FEW,,0.00,WeatherDisplay:10.37,2013-01-21 23:09:00,
2013-01-21 18:14:00,43.5,16.3,29.89,SSW,210,6.3,13.0,33,0.00,FEW,,0.00,WeatherDisplay:10.37,2013-01-21 23:14:00,
2013-01-21 18:19:00,43.4,15.5,29.89,SW,225,3.8,13.8,32,0.00,CLR,,0.00,WeatherDisplay:10.37,2013-01-21 23:19:00,
2013-01-21 18:24:00,43.2,16.0,29.89,NW,326,1.8,9.2,33,0.00,CLR,,0.00,WeatherDisplay:10.37,2013-01-21 23:24:00,
2013-01-21 18:29:00,42.9,15.0,29.89,WNW,296,3.0,0.0,32,0.00,CLR,,0.00,WeatherDisplay:10.37,2013-01-21 23:29:00,
2013-01-21 18:35:00,42.8,14.9,29.89,SW,235,1.3,4.6,32,0.00,CLR,,0.00,WeatherDisplay:10.37,2013-01-21 23:35:00,
2013-01-21 18:40:00,42.7,14.1,29.90,West,263,8.9,13.0,31,0.00,CLR,,0.00,WeatherDisplay:10.37,2013-01-21 23:40:00,
2013-01-21 18:45:00,42.5,13.2,29.89,NW,317,2.8,11.5,30,0.00,CLR,,0.00,WeatherDisplay:10.37,2013-01-21 23:45:00,
2013-01-21 18:50:00,42.2,12.2,29.89,SW,236,9.0,17.0,29,0.00,CLR,,0.00,WeatherDisplay:10.37,2013-01-21 23:50:00,
2013-01-21 18:55:00,41.9,11.9,29.89,SSE,156,2.3,9.2,29,0.00,CLR,,0.00,WeatherDisplay:10.37,2013-01-21 23:55:00,
2013-01-21 19:00:00,41.6,11.6,29.90,SSW,197,4.2,10.4,29,0.00,CLR,,0.00,WeatherDisplay:10.37,2013-01-22 00:00:00,
2013-01-21 19:05:00,41.4,11.5,29.90,West,262,4.6,9.2,29,0.00,CLR,,0.00,WeatherDisplay:10.37,2013-01-22 00:05:00,
2013-01-21 19:10:00,41.1,12.0,29.90,West,263,1.3,3.5,30,0.00,CLR,,0.00,WeatherDisplay:10.37,2013-01-22 00:10:00,
2013-01-21 19:15:00,40.8,12.5,29.90,WSW,240,1.0,3.0,31,0.00,CLR,,0.00,WeatherDisplay:10.37,2013-01-22 00:15:00,
2013-01-21 19:20:00,40.7,12.4,29.90,SW,228,1.8,5.8,31,0.00,CLR,,0.00,WeatherDisplay:10.37,2013-01-22 00:20:00,
2013-01-21 19:25:00,40.5,12.2,29.91,SW,233,4.8,10.0,31,0.00,CLR,,0.00,WeatherDisplay:10.37,2013-01-22 00:25:00,
2013-01-21 19:30:00,40.4,12.1,29.90,SW,221,4.2,10.4,31,0.00,CLR,,0.00,WeatherDisplay:10.37,2013-01-22 00:30:00,
2013-01-21 19:35:00,40.1,12.6,29.90,WSW,250,2.8,6.9,32,0.00,CLR,,0.00,WeatherDisplay:10.37,2013-01-22 00:35:00,
2013-01-21 19:40:00,40.0,12.5,29.90,NNE,16,3.9,9.0,32,0.00,CLR,,0.00,WeatherDisplay:10.37,2013-01-22 00:40:00,
2013-01-21 19:45:00,39.8,12.3,29.90,SW,217,2.7,12.0,32,0.00,CLR,,0.00,WeatherDisplay:10.37,2013-01-22 00:45:00,
2013-01-21 19:50:00,39.8,12.3,29.90,NW,307,3.3,9.2,32,0.00,CLR,,0.00,WeatherDisplay:10.37,2013-01-22 00:50:00,
2013-01-21 19:55:00,39.6,12.1,29.91,WNW,283,6.3,9.2,32,0.00,CLR,,0.00,WeatherDisplay:10.37,2013-01-22 00:55:00,
2013-01-21 20:00:00,39.5,12.0,29.90,West,274,5.7,12.7,32,0.00,CLR,,0.00,WeatherDisplay:10.37,2013-01-22 01:00:00,
2013-01-21 20:05:00,39.2,11.8,29.91,NNW,331,1.7,5.8,32,0.00,CLR,,0.00,WeatherDisplay:10.37,2013-01-22 01:05:00,
2013-01-21 20:10:00,38.8,12.1,29.91,NNW,329,1.2,8.1,33,0.00,CLR,,0.00,WeatherDisplay:10.37,2013-01-22 01:10:00,
2013-01-21 20:15:00,38.4,11.8,29.91,WSW,245,5.0,8.1,33,0.00,CLR,,0.00,WeatherDisplay:10.37,2013-01-22 01:15:00,
2013-01-21 20:20:00,38.1,11.5,29.91,WSW,238,3.8,6.0,33,0.00,CLR,,0.00,WeatherDisplay:10.37,2013-01-22 01:20:00,
2013-01-21 20:25:00,37.9,11.3,29.91,East,84,0.1,9.2,33,0.00,CLR,,0.00,WeatherDisplay:10.37,2013-01-22 01:25:00,
2013-01-21 20:30:00,37.6,11.0,29.92,WSW,243,4.0,9.0,33,0.00,CLR,,0.00,WeatherDisplay:10.37,2013-01-22 01:30:00,
2013-01-21 20:35:00,37.5,11.0,29.91,West,273,2.5,6.0,33,0.00,CLR,,0.00,WeatherDisplay:10.37,2013-01-22 01:35:00,
2013-01-21 20:40:00,37.3,10.8,29.91,SW,233,3.8,9.2,33,0.00,CLR,,0.00,WeatherDisplay:10.37,2013-01-22 01:40:00,
2013-01-21 20:45:00,37.2,10.7,29.91,South,191,2.3,9.2,33,0.00,CLR,,0.00,WeatherDisplay:10.37,2013-01-22 01:45:00,
2013-01-21 20:50:00,37.2,10.0,29.91,WNW,284,5.9,17.3,32,0.00,CLR,,0.00,WeatherDisplay:10.37,2013-01-22 01:50:00,
2013-01-21 20:55:00,37.2,10.7,29.92,SW,229,7.6,13.0,33,0.00,CLR,,0.00,WeatherDisplay:10.37,2013-01-22 01:55:00,
2013-01-21 21:00:00,37.1,11.3,29.92,NE,53,3.7,10.4,34,0.00,CLR,,0.00,WeatherDisplay:10.37,2013-01-22 02:00:00,
2013-01-21 21:05:00,36.8,10.3,29.92,NNW,346,3.4,7.0,33,0.00,CLR,,0.00,WeatherDisplay:10.37,2013-01-22 02:05:00,
2013-01-21 21:10:00,36.7,11.6,29.92,WNW,283,1.3,4.0,35,0.00,CLR,,0.00,WeatherDisplay:10.37,2013-01-22 02:10:00,
2013-01-21 21:15:00,36.4,10.7,29.92,NW,304,5.5,11.0,34,0.00,CLR,,0.00,WeatherDisplay:10.37,2013-01-22 02:15:00,
2013-01-21 21:20:00,36.2,10.5,29.92,WSW,257,1.7,3.5,34,0.00,CLR,,0.00,WeatherDisplay:10.37,2013-01-22 02:20:00,
2013-01-21 21:25:00,36.0,11.0,29.92,WSW,249,2.4,8.1,35,0.00,CLR,,0.00,WeatherDisplay:10.37,2013-01-22 02:25:00,
2013-01-21 21:30:00,35.8,10.8,29.93,NW,314,6.6,11.0,35,0.00,CLR,,0.00,WeatherDisplay:10.37,2013-01-22 02:30:00,
2013-01-21 21:35:00,35.6,11.2,29.93,North,357,4.3,9.0,36,0.00,CLR,,0.00,WeatherDisplay:10.37,2013-01-22 02:35:00,
2013-01-21 21:40:00,35.3,11.0,29.93,NNE,31,4.0,10.4,36,0.00,CLR,,0.00,WeatherDisplay:10.37,2013-01-22 02:40:00,
2013-01-21 21:45:00,35.1,10.8,29.92,SE,128,6.7,13.8,36,0.00,CLR,,0.00,WeatherDisplay:10.37,2013-01-22 02:45:00,
2013-01-21 21:50:00,34.8,10.5,29.93,SSW,202,4.8,11.0,36,0.00,CLR,,0.00,WeatherDisplay:10.37,2013-01-22 02:50:00,
2013-01-21 21:55:00,34.6,10.3,29.92,NNE,23,3.8,6.0,36,0.00,CLR,,0.00,WeatherDisplay:10.37,2013-01-22 02:55:00,
2013-01-21 22:00:00,34.4,9.5,29.93,NW,305,5.6,11.5,35,0.00,CLR,,0.00,WeatherDisplay:10.37,2013-01-22 03:00:00,
2013-01-21 22:05:00,34.3,10.1,29.93,North,354,4.1,6.9,36,0.00,CLR,,0.00,WeatherDisplay:10.37,2013-01-22 03:05:00,
2013-01-21 22:10:00,34.1,9.9,29.94,NNW,329,5.3,12.0,36,0.00,CLR,,0.00,WeatherDisplay:10.37,2013-01-22 03:10:00,
2013-01-21 22:15:00,33.9,9.7,29.94,WNW,294,6.8,18.0,36,0.00,CLR,,0.00,WeatherDisplay:10.37,2013-01-22 03:15:00,
2013-01-21 22:20:00,33.7,9.5,29.95,NW,316,4.9,10.0,36,0.00,CLR,,0.00,WeatherDisplay:10.37,2013-01-22 03:20:00,
2013-01-21 22:25:00,33.5,9.4,29.94,SW,222,3.3,6.9,36,0.00,CLR,,0.00,WeatherDisplay:10.37,2013-01-22 03:25:00,
2013-01-21 22:30:00,33.4,8.6,29.94,NNW,336,6.1,11.5,35,0.00,CLR,,0.00,WeatherDisplay:10.37,2013-01-22 03:30:00,
2013-01-21 22:35:00,33.3,9.2,29.95,NNW,341,6.5,13.8,36,0.00,CLR,,0.00,WeatherDisplay:10.37,2013-01-22 03:35:00,
2013-01-21 22:40:00,33.1,9.0,29.95,SW,236,8.4,15.0,36,0.00,CLR,,0.00,WeatherDisplay:10.37,2013-01-22 03:40:00,
2013-01-21 22:45:00,33.0,9.5,29.95,North,355,5.9,13.8,37,0.00,CLR,,0.00,WeatherDisplay:10.37,2013-01-22 03:45:00,
2013-01-21 22:50:00,32.8,8.7,29.96,NNW,330,7.3,16.1,36,0.00,CLR,,0.00,WeatherDisplay:10.37,2013-01-22 03:50:00,
2013-01-21 22:55:00,32.6,9.2,29.96,SW,228,5.6,15.0,37,0.00,CLR,,0.00,WeatherDisplay:10.37,2013-01-22 03:55:00,
2013-01-21 23:00:00,32.5,9.1,29.96,SSW,202,5.8,13.0,37,0.00,CLR,,0.00,WeatherDisplay:10.37,2013-01-22 04:00:00,
2013-01-21 23:05:00,32.3,8.3,29.97,NW,316,10.4,19.6,36,0.00,CLR,,0.00,WeatherDisplay:10.37,2013-01-22 04:05:00,
2013-01-21 23:10:00,32.1,9.3,29.96,WNW,291,4.4,12.7,38,0.00,CLR,,0.00,WeatherDisplay:10.37,2013-01-22 04:10:00,
2013-01-21 23:15:00,31.8,8.4,29.96,SSE,153,6.7,14.0,37,0.00,CLR,,0.00,WeatherDisplay:10.37,2013-01-22 04:15:00,
2013-01-21 23:20:00,31.6,8.3,29.96,NW,326,3.3,11.5,37,0.00,CLR,,0.00,WeatherDisplay:10.37,2013-01-22 04:20:00,
2013-01-21 23:25:00,31.4,8.1,29.96,West,264,7.2,14.0,37,0.00,CLR,,0.00,WeatherDisplay:10.37,2013-01-22 04:25:00,
2013-01-21 23:30:00,31.3,9.2,29.96,WSW,258,3.1,6.9,39,0.00,CLR,,0.00,WeatherDisplay:10.37,2013-01-22 04:30:00,
2013-01-21 23:35:00,31.0,8.9,29.96,WSW,243,7.7,17.0,39,0.00,CLR,,0.00,WeatherDisplay:10.37,2013-01-22 04:35:00,
2013-01-21 23:40:00,30.9,9.4,29.97,SSE,159,5.1,11.5,40,0.00,CLR,,0.00,WeatherDisplay:10.37,2013-01-22 04:40:00,
2013-01-21 23:45:00,30.7,9.2,29.97,SW,215,4.2,11.5,40,0.00,CLR,,0.00,WeatherDisplay:10.37,2013-01-22 04:45:00,
2013-01-21 23:50:00,30.5,9.0,29.97,West,276,4.2,8.1,40,0.00,CLR,,0.00,WeatherDisplay:10.37,2013-01-22 04:50:00,
2013-01-21 23:55:00,30.4,9.5,29.97,WNW,287,5.9,11.5,41,0.00,CLR,,0.00,WeatherDisplay:10.37,2013-01-22 04:55:00,